Time;durP1;ratioP1;P1;durP2;ratioP2;P2;SDS_P1;SDS_P2;PMS_P1;PMS_P2;Temp;Humidity;BMP_temperature;BMP_pressure;BME280_temperature;BME280_humidity;BME280_pressure;Samples;Min_cycle;Max_cycle;Signal;HPM_P1;HPM_P2
2022/06/29 00:02:40;;;;;;;12.57;2.63;;;;;;;27.66;49.57;100223.34;4934520;29;20047;-65
2022/06/29 00:05:26;;;;;;;7.60;2.13;;;;;;;27.67;49.79;100218.53;4934946;29;20521;-65
2022/06/29 00:08:10;;;;;;;6.60;1.55;;;;;;;27.62;49.78;100214.28;4934641;29;20534;-65
2022/06/29 00:10:55;;;;;;;13.70;2.08;;;;;;;27.59;49.34;100213.16;4935309;29;20074;-65
2022/06/29 00:13:40;;;;;;;8.52;2.28;;;;;;;27.60;49.30;100205.56;4918587;29;20054;-65
2022/06/29 00:16:25;;;;;;;4.45;1.70;;;;;;;27.57;49.29;100204.44;4934697;29;20042;-65
2022/06/29 00:19:10;;;;;;;10.63;2.25;;;;;;;27.57;48.90;100195.28;4934302;29;20063;-65
2022/06/29 00:21:55;;;;;;;7.32;1.83;;;;;;;27.55;49.30;100192.13;4934557;29;20035;-65
2022/06/29 00:24:40;;;;;;;12.10;2.40;;;;;;;27.53;48.77;100191.81;4934855;29;20062;-66
2022/06/29 00:27:25;;;;;;;7.75;2.03;;;;;;;27.52;49.08;100185.44;4934387;29;20040;-64
2022/06/29 00:30:11;;;;;;;10.15;2.63;;;;;;;27.52;48.88;100170.69;4934569;29;20094;-64
2022/06/29 00:32:56;;;;;;;9.07;2.40;;;;;;;27.50;48.87;100179.50;4933669;29;20048;-65
2022/06/29 00:35:41;;;;;;;14.10;4.38;;;;;;;27.49;48.78;100168.72;4955482;28;20047;-65
2022/06/29 00:38:26;;;;;;;10.32;2.05;;;;;;;27.50;48.38;100164.75;4930977;29;20059;-64
2022/06/29 00:41:11;;;;;;;10.98;2.33;;;;;;;27.46;48.56;100166.84;4936455;29;20443;-65
2022/06/29 00:43:56;;;;;;;13.80;1.92;;;;;;;27.46;48.06;100161.25;4953472;29;20046;-65
2022/06/29 00:46:57;;;;;;;13.75;3.13;;;;;;;27.45;47.78;100162.47;4933627;29;20040;-65
2022/06/29 00:49:42;;;;;;;12.63;1.92;;;;;;;27.43;48.18;100156.56;4919644;29;20044;-66
2022/06/29 00:52:29;;;;;;;6.93;1.42;;;;;;;27.42;47.56;100158.56;4933984;29;20406;-64
2022/06/29 00:55:18;;;;;;;9.57;1.63;;;;;;;27.41;47.53;100150.63;4934188;29;20058;-64
2022/06/29 00:58:05;;;;;;;5.80;1.40;;;;;;;27.39;47.69;100148.28;4919535;29;20047;-64
2022/06/29 01:00:50;;;;;;;5.60;1.80;;;;;;;27.36;47.58;100149.16;4933682;29;20062;-64
2022/06/29 01:03:34;;;;;;;11.00;1.52;;;;;;;27.34;47.59;100146.03;4937048;28;20066;-65
2022/06/29 01:06:19;;;;;;;10.15;2.17;;;;;;;27.35;47.44;100149.59;4933762;29;20502;-65
2022/06/29 01:09:05;;;;;;;11.35;2.05;;;;;;;27.29;47.27;100145.78;4933186;29;20054;-64
2022/06/29 01:11:50;;;;;;;11.15;2.85;;;;;;;27.28;46.98;100144.25;4934374;29;20051;-65
2022/06/29 01:14:35;;;;;;;8.82;2.60;;;;;;;27.27;46.76;100151.06;4933867;29;20047;-64
2022/06/29 01:17:22;;;;;;;14.95;2.13;;;;;;;27.28;46.74;100142.22;4926900;29;20399;-66
2022/06/29 01:20:08;;;;;;;9.32;2.15;;;;;;;27.28;46.44;100136.63;4928207;29;20063;-65
2022/06/29 01:22:52;;;;;;;13.35;1.55;;;;;;;27.26;46.23;100139.09;4933699;29;20051;-65
2022/06/29 01:25:37;;;;;;;9.15;1.20;;;;;;;27.23;46.07;100137.16;4933403;29;20036;-64
2022/06/29 01:28:22;;;;;;;10.85;1.63;;;;;;;27.22;46.17;100133.63;4933362;29;20070;-65
2022/06/29 01:31:13;;;;;;;8.65;1.45;;;;;;;27.27;45.94;100140.66;4933961;29;20052;-65
2022/06/29 01:34:00;;;;;;;12.93;2.30;;;;;;;27.26;46.18;100135.50;4929307;29;20051;-65
2022/06/29 01:36:45;;;;;;;6.53;1.92;;;;;;;27.22;46.30;100128.03;4915032;29;20051;-64
2022/06/29 01:39:31;;;;;;;13.80;2.65;;;;;;;27.26;46.17;100135.50;4914399;29;20420;-65
2022/06/29 01:42:16;;;;;;;9.80;2.10;;;;;;;27.23;46.07;100131.59;4931756;29;20058;-64
2022/06/29 01:45:02;;;;;;;11.68;1.88;;;;;;;27.22;45.71;100135.63;4933888;29;20519;-65
2022/06/29 01:47:47;;;;;;;9.45;2.00;;;;;;;27.22;45.82;100135.63;4942523;28;20660;-66
2022/06/29 01:50:32;;;;;;;9.77;1.70;;;;;;;27.21;46.08;100137.63;4937365;29;20075;-65
2022/06/29 01:53:17;;;;;;;10.05;1.65;;;;;;;27.21;45.60;100146.00;4937602;29;20046;-64
2022/06/29 01:56:02;;;;;;;5.18;1.63;;;;;;;27.22;45.60;100153.16;4921913;29;20066;-65
2022/06/29 01:58:47;;;;;;;10.10;1.83;;;;;;;27.18;45.54;100163.63;4928838;29;20550;-65
2022/06/29 02:01:34;;;;;;;10.52;2.30;;;;;;;27.11;46.19;100163.06;4935370;29;20055;-65
2022/06/29 02:04:19;;;;;;;13.32;2.15;;;;;;;27.15;46.30;100156.16;4943659;29;20036;-65
2022/06/29 02:07:04;;;;;;;10.57;2.20;;;;;;;27.15;46.51;100147.78;4942719;29;20055;-65
2022/06/29 02:09:49;;;;;;;9.80;2.20;;;;;;;27.18;46.50;100143.31;4936963;29;20043;-66
2022/06/29 02:12:34;;;;;;;11.45;2.38;;;;;;;27.12;46.44;100154.22;4936983;29;20062;-65
2022/06/29 02:15:19;;;;;;;9.40;2.05;;;;;;;27.12;46.32;100148.63;4950696;29;20036;-66
2022/06/29 02:18:04;;;;;;;18.02;2.45;;;;;;;27.12;46.74;100145.09;4936373;29;20046;-64
2022/06/29 02:20:49;;;;;;;13.60;1.90;;;;;;;27.09;46.92;100143.16;4937085;29;20055;-65
2022/06/29 02:23:34;;;;;;;8.40;1.58;;;;;;;27.04;47.18;100136.13;4936973;29;20059;-65
2022/06/29 02:26:18;;;;;;;10.68;3.08;;;;;;;27.05;47.39;100139.69;4936087;29;20051;-65
2022/06/29 02:29:04;;;;;;;4.63;1.40;;;;;;;27.04;47.49;100136.13;4935271;29;20435;-65
2022/06/29 02:34:52;;;;;;;4.50;1.70;;;;;;;27.00;48.07;100141.03;4933144;29;20050;-65
2022/06/29 02:37:37;;;;;;;11.77;2.50;;;;;;;26.93;48.27;100151.59;4919583;29;20047;-64
2022/06/29 02:40:22;;;;;;;14.73;2.58;;;;;;;26.85;48.22;100139.81;4918555;29;20052;-64
2022/06/29 02:43:08;;;;;;;5.22;1.52;;;;;;;26.87;48.55;100142.22;4917647;29;20388;-65
2022/06/29 02:45:53;;;;;;;7.80;2.50;;;;;;;26.90;48.43;100146.91;4925419;29;20399;-65
2022/06/29 02:48:38;;;;;;;4.82;1.25;;;;;;;26.91;48.10;100145.69;4930636;29;20050;-65
2022/06/29 02:51:22;;;;;;;7.47;2.03;;;;;;;26.89;48.76;100134.94;4935169;29;20051;-66
2022/06/29 02:54:08;;;;;;;5.78;1.73;;;;;;;26.86;48.69;100144.19;4936296;29;20530;-65
2022/06/29 02:56:54;;;;;;;9.15;2.03;;;;;;;26.89;48.29;100136.94;4936264;29;20105;-65
2022/06/29 02:59:39;;;;;;;7.22;2.03;;;;;;;26.91;48.57;100132.50;4933731;29;20054;-64
2022/06/29 03:02:24;;;;;;;7.90;1.70;;;;;;;26.91;48.29;100132.50;4917392;29;20507;-65
2022/06/29 03:05:09;;;;;;;12.57;2.22;;;;;;;26.89;48.64;100139.75;4917458;29;20522;-65
2022/06/29 03:07:54;;;;;;;4.60;1.30;;;;;;;26.91;48.68;100140.09;4928454;29;20141;-65
2022/06/29 03:10:39;;;;;;;12.57;1.83;;;;;;;26.89;48.56;100137.75;4935658;29;20062;-65
2022/06/29 03:13:24;;;;;;;7.22;1.63;;;;;;;26.90;48.42;100139.31;4928831;29;20066;-65
2022/06/29 03:16:09;;;;;;;8.52;1.77;;;;;;;26.89;48.60;100151.69;4935824;29;20051;-65
2022/06/29 03:18:54;;;;;;;7.97;1.95;;;;;;;26.89;48.46;100167.66;4935459;29;20175;-64
2022/06/29 03:21:39;;;;;;;12.02;1.75;;;;;;;26.87;48.85;100170.13;4936732;28;20046;-64
2022/06/29 03:24:24;;;;;;;6.72;2.08;;;;;;;26.89;48.49;100179.59;4943681;29;20568;-65
2022/06/29 03:27:09;;;;;;;17.63;2.03;;;;;;;26.86;48.55;100180.47;4934832;29;20047;-65
2022/06/29 03:29:54;;;;;;;8.75;1.63;;;;;;;26.85;48.94;100190.03;4936881;29;20036;-65
2022/06/29 03:32:39;;;;;;;9.57;1.63;;;;;;;26.87;48.89;100193.19;4934994;29;20046;-65
2022/06/29 03:35:24;;;;;;;8.73;1.58;;;;;;;26.83;49.25;100203.63;4928482;29;20055;-64
2022/06/29 03:38:09;;;;;;;10.95;1.90;;;;;;;26.86;48.87;100211.16;4935037;29;20067;-65
2022/06/29 03:40:54;;;;;;;9.50;2.28;;;;;;;26.81;49.35;100212.47;4935099;29;20043;-65
2022/06/29 03:43:39;;;;;;;7.32;1.88;;;;;;;26.85;49.03;100211.59;4919177;29;20050;-65
2022/06/29 03:46:24;;;;;;;9.23;2.50;;;;;;;26.77;49.58;100211.75;4934924;29;20051;-64
2022/06/29 03:49:09;;;;;;;9.50;1.88;;;;;;;26.75;49.73;100205.06;4934345;29;20050;-65
2022/06/29 03:51:54;;;;;;;9.32;2.67;;;;;;;26.66;50.13;100199.31;4941290;29;20046;-65
2022/06/29 03:54:39;;;;;;;11.93;2.85;;;;;;;26.68;50.08;100192.06;4954317;29;20403;-64
2022/06/29 03:57:24;;;;;;;7.63;1.70;;;;;;;26.69;50.25;100184.50;4949591;29;20038;-65
2022/06/29 04:00:09;;;;;;;9.18;2.13;;;;;;;26.74;50.34;100181.94;4934744;29;20522;-65
2022/06/29 04:02:57;;;;;;;9.77;2.13;;;;;;;26.74;50.49;100173.59;4933133;29;20054;-65
2022/06/29 04:05:42;;;;;;;10.40;2.70;;;;;;;26.71;50.73;100165.31;4928233;29;20047;-65
2022/06/29 04:08:27;;;;;;;11.38;2.58;;;;;;;26.70;51.14;100163.75;4940052;29;20047;-63
2022/06/29 04:14:16;;;;;;;8.55;1.77;;;;;;;26.69;50.93;100184.50;4934688;29;20043;-65
2022/06/29 04:17:01;;;;;;;8.82;2.03;;;;;;;26.72;50.80;100183.59;4934488;29;20034;-65
2022/06/29 04:19:46;;;;;;;10.50;2.55;;;;;;;26.72;50.48;100187.19;4949716;29;20050;-65
2022/06/29 04:22:31;;;;;;;8.25;2.13;;;;;;;26.66;50.19;100179.78;4929014;29;20044;-64
2022/06/29 04:25:16;;;;;;;6.85;1.80;;;;;;;26.63;50.30;100186.22;4934529;29;20059;-65
2022/06/29 04:28:01;;;;;;;6.90;1.52;;;;;;;26.60;50.15;100175.97;4934018;29;20404;-65
2022/06/29 04:30:46;;;;;;;8.07;2.13;;;;;;;26.61;50.31;100178.31;4934661;29;20062;-64
2022/06/29 04:33:32;;;;;;;6.57;1.58;;;;;;;26.66;50.68;100185.38;4932041;28;20067;-65
2022/06/29 04:36:17;;;;;;;15.43;2.72;;;;;;;26.69;50.64;100187.28;4927159;29;20051;-61
2022/06/29 04:39:02;;;;;;;7.47;2.08;;;;;;;26.78;50.99;100181.84;4943794;29;20042;-62
2022/06/29 04:41:47;;;;;;;12.65;3.05;;;;;;;26.80;51.44;100182.22;4931050;29;20515;-61
2022/06/29 04:44:32;;;;;;;17.80;4.03;;;;;;;26.77;51.31;100188.66;4929956;29;20050;-61
2022/06/29 04:47:17;;;;;;;9.18;2.25;;;;;;;26.69;52.17;100198.44;4935567;29;20059;-61
2022/06/29 04:50:01;;;;;;;16.95;2.97;;;;;;;26.59;52.08;100191.91;4935003;29;20070;-60
2022/06/29 04:52:46;;;;;;;29.10;4.78;;;;;;;26.34;53.32;100178.59;4936621;29;20047;-64
2022/06/29 04:55:31;;;;;;;16.48;3.15;;;;;;;26.19;53.50;100179.34;4932626;29;20039;-65
2022/06/29 04:58:16;;;;;;;20.27;3.67;;;;;;;26.17;53.81;100176.97;4941705;29;20044;-64
2022/06/29 05:01:01;;;;;;;15.05;3.15;;;;;;;26.18;53.55;100181.34;4948611;23;20027;-60
2022/06/29 05:03:46;;;;;;;9.48;3.67;;;;;;;26.17;53.52;100190.91;4945752;28;20071;-63
2022/06/29 05:06:31;;;;;;;14.30;3.47;;;;;;;26.18;53.81;100184.13;4952305;28;20038;-60
2022/06/29 05:09:16;;;;;;;12.05;4.10;;;;;;;26.16;54.25;100178.19;4952545;28;20054;-63
2022/06/29 05:12:01;;;;;;;17.58;3.38;;;;;;;26.18;54.31;100186.13;4939376;29;20051;-62
2022/06/29 05:14:46;;;;;;;9.68;3.03;;;;;;;26.20;54.49;100187.28;4940898;29;20104;-62
2022/06/29 05:17:36;;;;;;;16.83;4.20;;;;;;;26.19;54.72;100180.13;4935584;29;20058;-62
2022/06/29 05:20:21;;;;;;;10.82;3.22;;;;;;;26.15;54.64;100175.84;4926121;29;20503;-63
2022/06/29 05:23:07;;;;;;;13.88;3.78;;;;;;;26.20;54.67;100173.34;4928687;29;20395;-62
2022/06/29 05:25:52;;;;;;;10.73;3.65;;;;;;;26.22;54.95;100168.13;4952345;29;20054;-61
2022/06/29 05:28:37;;;;;;;8.82;3.13;;;;;;;26.21;54.94;100168.53;4952665;29;20043;-62
2022/06/29 05:31:23;;;;;;;12.85;3.50;;;;;;;26.24;54.65;100162.91;4958372;28;20058;-61
2022/06/29 05:34:11;;;;;;;13.00;2.88;;;;;;;26.26;54.79;100168.81;4946855;29;20050;-62
2022/06/29 05:36:56;;;;;;;7.90;2.63;;;;;;;26.18;54.81;100172.19;4924234;29;20036;-62
2022/06/29 05:39:42;;;;;;;12.05;2.60;;;;;;;26.19;54.62;100171.75;4928583;29;20502;-61
2022/06/29 05:42:27;;;;;;;13.23;2.90;;;;;;;26.19;54.42;100157.81;4915715;29;20054;-62
2022/06/29 05:45:12;;;;;;;10.82;2.78;;;;;;;26.18;53.81;100158.25;4941873;29;20051;-62
2022/06/29 05:47:57;;;;;;;11.48;2.65;;;;;;;26.23;52.94;100161.31;4918830;29;20436;-62
2022/06/29 05:50:42;;;;;;;10.00;2.42;;;;;;;26.30;53.38;100163.94;4946403;29;20055;-62
2022/06/29 05:53:27;;;;;;;10.95;2.17;;;;;;;26.31;52.78;100164.75;4945341;29;20040;-61
2022/06/29 05:56:12;;;;;;;12.27;2.38;;;;;;;26.30;52.98;100161.16;4926372;29;20052;-63
2022/06/29 05:58:57;;;;;;;10.85;2.05;;;;;;;26.29;52.68;100170.75;4937345;29;20408;-61
2022/06/29 06:01:42;;;;;;;12.52;3.47;;;;;;;26.30;52.10;100171.53;4933141;29;20052;-61
2022/06/29 06:04:27;;;;;;;16.48;3.10;;;;;;;26.29;52.56;100175.53;4933300;29;20063;-61
2022/06/29 06:07:12;;;;;;;10.10;3.28;;;;;;;26.33;52.58;100171.44;4934352;29;20047;-62
2022/06/29 06:09:57;;;;;;;5.90;1.70;;;;;;;26.31;52.02;100182.22;4933082;29;20533;-61
2022/06/29 06:12:42;;;;;;;9.63;2.33;;;;;;;26.31;52.09;100182.22;4933476;29;20054;-61
2022/06/29 06:15:27;;;;;;;9.80;2.22;;;;;;;26.36;51.66;100184.50;4933288;29;20051;-61
2022/06/29 06:18:12;;;;;;;8.75;2.25;;;;;;;26.40;51.94;100178.84;4932966;29;20043;-61
2022/06/29 06:20:57;;;;;;;9.57;2.20;;;;;;;26.44;52.04;100192.69;4933475;29;20070;-61
2022/06/29 06:23:42;;;;;;;13.77;2.70;;;;;;;26.42;52.19;100195.13;4933152;29;20518;-63
2022/06/29 06:26:26;;;;;;;;;;;;;;;26.44;52.43;100192.69;4933606;29;20051;-62
2022/06/29 06:29:11;;;;;;;12.20;2.10;;;;;;;26.43;52.06;100194.69;4932862;29;19915;-61
2022/06/29 06:31:56;;;;;;;8.05;2.25;;;;;;;26.46;52.16;100196.63;4933349;29;20047;-61
2022/06/29 06:34:41;;;;;;;10.50;1.88;;;;;;;26.52;52.12;100194.06;4936297;29;20055;-62
2022/06/29 06:37:25;;;;;;;10.52;2.53;;;;;;;26.56;51.64;100197.59;4936365;29;20040;-61
2022/06/29 06:43:14;;;;;;;7.13;1.70;;;;;;;26.59;50.87;100199.50;4936506;29;20039;-61
2022/06/29 06:45:59;;;;;;;4.70;1.55;;;;;;;26.57;51.38;100205.50;4936507;29;20059;-61
2022/06/29 06:48:44;;;;;;;6.68;1.50;;;;;;;26.53;51.14;100195.66;4936028;29;20047;-62
2022/06/29 06:51:29;;;;;;;10.75;1.80;;;;;;;26.54;51.54;100191.66;4936394;29;20058;-61
2022/06/29 06:54:13;;;;;;;7.70;2.28;;;;;;;26.55;51.29;100190.44;4936532;29;20054;-61
2022/06/29 06:56:58;;;;;;;11.85;2.20;;;;;;;26.59;51.30;100191.13;4936406;29;20047;-62
2022/06/29 06:59:43;;;;;;;10.68;2.47;;;;;;;26.61;51.52;100197.84;4937139;29;20055;-61
2022/06/29 07:02:28;;;;;;;6.40;2.03;;;;;;;26.63;51.58;100191.81;4936584;29;20043;-61
2022/06/29 07:05:13;;;;;;;7.18;3.22;;;;;;;26.61;51.78;100188.69;4936207;29;20055;-61
2022/06/29 07:07:58;;;;;;;8.95;2.25;;;;;;;26.60;51.68;100195.47;4935802;29;20063;-61
2022/06/29 07:10:43;;;;;;;9.05;1.90;;;;;;;26.61;51.95;100195.06;4936071;29;20526;-61
2022/06/29 07:13:28;;;;;;;8.65;2.28;;;;;;;26.69;52.26;100201.22;4936124;29;20530;-61
2022/06/29 07:16:14;;;;;;;11.10;2.33;;;;;;;26.68;51.44;100197.66;4935997;29;20113;-61
2022/06/29 07:18:58;;;;;;;10.27;2.25;;;;;;;26.70;51.10;100194.44;4935765;29;20039;-62
2022/06/29 07:21:43;;;;;;;9.35;1.92;;;;;;;26.72;50.80;100201.13;4935925;29;20048;-61
2022/06/29 07:24:28;;;;;;;7.60;1.92;;;;;;;26.74;50.62;100197.91;4935921;29;20054;-61
2022/06/29 07:27:13;;;;;;;4.50;1.70;;;;;;;26.75;50.37;100202.28;4935758;29;20050;-61
2022/06/29 07:29:58;;;;;;;6.40;1.77;;;;;;;26.76;50.11;100206.63;4936853;29;20074;-63
2022/06/29 07:32:43;;;;;;;5.00;1.83;;;;;;;26.81;50.49;100206.09;4936064;29;20051;-61
2022/06/29 07:35:28;;;;;;;7.97;3.15;;;;;;;26.79;50.24;100203.75;4935791;29;20066;-61
2022/06/29 07:38:13;;;;;;;7.50;2.05;;;;;;;26.81;50.45;100208.91;4935569;29;20055;-61
2022/06/29 07:40:58;;;;;;;5.03;1.80;;;;;;;26.86;50.07;100213.94;4935539;29;20408;-61
2022/06/29 07:43:44;;;;;;;8.00;1.50;;;;;;;26.92;50.18;100214.22;4935361;29;20538;-61
2022/06/29 07:46:29;;;;;;;9.68;1.70;;;;;;;26.91;50.26;100216.22;4935627;29;20415;-62
2022/06/29 07:49:13;;;;;;;8.77;1.90;;;;;;;26.95;50.19;100213.34;4935339;29;20047;-61
2022/06/29 07:51:58;;;;;;;11.55;2.88;;;;;;;26.96;50.32;100210.13;4935360;29;20079;-61
2022/06/29 07:54:43;;;;;;;5.85;1.58;;;;;;;26.99;49.90;100216.81;4938170;29;20491;-62
2022/06/29 07:57:29;;;;;;;5.72;2.20;;;;;;;27.03;50.11;100217.50;4935430;29;20047;-61
2022/06/29 08:00:13;;;;;;;10.05;2.88;;;;;;;27.05;49.70;100213.06;4934928;29;20055;-61
2022/06/29 08:02:58;;;;;;;7.40;1.67;;;;;;;27.10;50.11;100217.31;4935213;29;20042;-61
2022/06/29 08:05:45;;;;;;;6.43;1.80;;;;;;;27.15;49.87;100214.78;4934942;29;20058;-62
2022/06/29 08:08:30;;;;;;;13.30;1.40;;;;;;;27.18;49.52;100219.47;4934563;29;20043;-61
2022/06/29 08:11:15;;;;;;;8.35;1.63;;;;;;;27.16;49.25;100218.34;4934983;29;20056;-61
2022/06/29 08:14:00;;;;;;;8.63;1.77;;;;;;;27.18;49.69;100213.88;4935058;29;20051;-62
2022/06/29 08:16:45;;;;;;;8.60;1.33;;;;;;;27.26;49.50;100219.28;4934829;29;20051;-62
2022/06/29 08:19:30;;;;;;;14.77;2.10;;;;;;;27.31;49.18;100221.53;4934850;29;20046;-61
2022/06/29 08:22:15;;;;;;;10.50;2.13;;;;;;;27.37;48.89;100219.78;4934779;29;20070;-61
2022/06/29 08:25:00;;;;;;;12.77;2.40;;;;;;;27.40;49.08;100213.28;4934736;29;20070;-62
2022/06/29 08:27:54;;;;;;;7.38;1.85;;;;;;;27.44;49.19;100217.56;4934647;29;20040;-61
2022/06/29 08:30:39;;;;;;;;;;;;;;;27.52;48.50;100220.97;4935009;29;20054;-62
2022/06/29 08:33:23;;;;;;;6.75;1.63;;;;;;;27.51;48.81;100213.81;4934657;29;20016;-62
2022/06/29 08:36:09;;;;;;;9.80;1.70;;;;;;;27.60;48.17;100222.31;4934374;29;20050;-62
2022/06/29 08:38:53;;;;;;;8.95;1.70;;;;;;;27.64;48.28;100223.00;4934567;29;20407;-61
2022/06/29 08:41:40;;;;;;;8.23;2.10;;;;;;;27.77;47.41;100226.63;4934386;29;20055;-62
2022/06/29 08:44:25;;;;;;;5.85;1.48;;;;;;;27.81;47.74;100227.28;4934562;29;20054;-62
2022/06/29 08:47:10;;;;;;;11.10;1.80;;;;;;;27.85;47.54;100222.38;4934258;29;20431;-63
2022/06/29 08:49:56;;;;;;;5.57;1.65;;;;;;;27.94;47.81;100230.88;4934823;29;20035;-62
2022/06/29 08:52:43;;;;;;;7.18;1.70;;;;;;;28.03;47.66;100230.22;4934269;29;20050;-61
2022/06/29 08:55:29;;;;;;;9.70;2.08;;;;;;;28.07;47.02;100234.47;4933882;29;20419;-61
2022/06/29 08:58:21;;;;;;;8.88;2.35;;;;;;;28.16;46.79;100233.03;4934299;29;20042;-62
2022/06/29 09:01:06;;;;;;;4.70;1.85;;;;;;;28.19;46.53;100232.16;4933906;29;20055;-64
2022/06/29 09:03:51;;;;;;;18.92;2.47;;;;;;;28.21;46.80;100243.69;4934116;29;20043;-61
2022/06/29 09:06:36;;;;;;;9.55;1.80;;;;;;;28.26;46.88;100235.50;4934124;29;20050;-61
2022/06/29 09:09:23;;;;;;;6.10;1.90;;;;;;;28.33;47.10;100240.09;4933745;29;20046;-62
2022/06/29 09:12:17;;;;;;;8.38;2.03;;;;;;;28.38;46.85;100242.34;4933851;29;20050;-62
2022/06/29 09:15:05;;;;;;;9.48;2.15;;;;;;;28.43;46.59;100242.56;4933957;29;20055;-62
2022/06/29 09:17:50;;;;;;;7.65;2.53;;;;;;;28.45;46.20;100242.09;4933581;29;20052;-62
2022/06/29 09:20:40;;;;;;;6.95;1.80;;;;;;;28.54;46.11;100250.63;4933744;29;20543;-62
2022/06/29 09:23:26;;;;;;;6.68;2.00;;;;;;;28.54;46.07;100259.00;4933872;29;20066;-62
2022/06/29 09:26:11;;;;;;;7.90;2.38;;;;;;;28.60;45.79;100256.44;4933692;29;20047;-62
2022/06/29 09:28:57;;;;;;;9.05;2.30;;;;;;;28.68;45.92;100250.13;4933484;29;20510;-62
2022/06/29 09:31:43;;;;;;;7.20;2.13;;;;;;;28.69;46.02;100250.94;4933668;29;20055;-62
2022/06/29 09:34:35;;;;;;;7.80;2.78;;;;;;;28.75;45.85;100255.50;4934051;29;20490;-62
2022/06/29 09:37:22;;;;;;;7.38;1.67;;;;;;;28.79;45.76;100249.81;4933309;29;20059;-62
2022/06/29 09:40:07;;;;;;;4.43;1.92;;;;;;;28.83;44.93;100262.47;4933741;29;20066;-62
2022/06/29 09:42:52;;;;;;;11.50;3.83;;;;;;;28.86;45.00;100255.16;4933737;29;20046;-61
2022/06/29 09:45:37;;;;;;;6.15;2.42;;;;;;;28.89;44.61;100257.88;4933669;29;20095;-61
2022/06/29 09:48:25;;;;;;;5.70;2.15;;;;;;;28.94;44.79;100256.50;4932855;29;20047;-61
2022/06/29 09:54:17;;;;;;;7.53;2.30;;;;;;;28.96;44.91;100267.22;4933640;29;20043;-62
2022/06/29 09:57:03;;;;;;;10.13;2.65;;;;;;;28.96;44.99;100270.03;4933304;29;20075;-62
2022/06/29 10:03:13;;;;;;;11.90;2.92;;;;;;;28.98;45.12;100273.16;4933032;29;20055;-63
2022/06/29 10:06:05;;;;;;;11.15;2.50;;;;;;;29.00;44.61;100281.91;4929132;29;20642;-61
2022/06/29 10:08:51;;;;;;;6.78;2.10;;;;;;;28.98;44.72;100281.56;4925462;29;20036;-62
2022/06/29 10:15:41;;;;;;;8.93;1.90;;;;;;;29.01;44.43;100286.25;4926266;29;20063;-61
2022/06/29 10:19:03;;;;;;;10.13;2.53;;;;;;;28.98;45.13;100278.78;4936845;28;20056;-61
2022/06/29 10:21:49;;;;;;;10.85;2.47;;;;;;;28.97;44.26;100285.59;4951457;29;20039;-62
2022/06/29 10:24:37;;;;;;;7.78;2.47;;;;;;;28.98;44.55;100287.97;4959842;28;20042;-62
2022/06/29 10:27:21;;;;;;;9.95;3.20;;;;;;;28.97;44.38;100283.59;4943208;28;20051;-62
2022/06/29 10:30:24;;;;;;;10.35;2.65;;;;;;;28.99;44.73;100281.13;4945992;29;20124;-61
2022/06/29 10:33:31;;;;;;;12.82;2.63;;;;;;;28.98;44.60;100284.38;4935116;29;20047;-61
2022/06/29 10:36:17;;;;;;;8.57;2.58;;;;;;;28.98;44.47;100278.78;4955921;29;20480;-61
2022/06/29 10:39:03;;;;;;;9.23;3.65;;;;;;;28.98;44.93;100279.56;4933344;29;20047;-61
2022/06/29 10:45:02;;;;;;;9.82;3.45;;;;;;;29.02;45.43;100273.81;4936222;29;20119;-62
2022/06/29 10:47:54;;;;;;;9.40;3.33;;;;;;;29.00;45.58;100271.50;4935459;29;20043;-63
2022/06/29 10:50:42;;;;;;;11.40;2.97;;;;;;;28.98;45.34;100268.34;4932112;29;20107;-61
2022/06/29 10:53:27;;;;;;;9.32;2.67;;;;;;;28.95;45.66;100260.09;4924955;29;20077;-61
2022/06/29 10:56:12;;;;;;;7.18;3.38;;;;;;;29.00;45.37;100259.50;4941637;29;20070;-62
2022/06/29 10:58:57;;;;;;;11.65;3.45;;;;;;;29.00;44.95;100265.13;4937173;29;20043;-61
2022/06/29 11:01:42;;;;;;;8.82;3.58;;;;;;;28.99;45.40;100258.72;4930883;28;20048;-63
2022/06/29 11:04:27;;;;;;;11.15;3.60;;;;;;;29.00;45.26;100265.13;4931571;29;20043;-61
2022/06/29 11:13:26;;;;;;;14.40;3.38;;;;;;;28.96;46.20;100264.44;4957870;23;20051;-65
2022/06/29 11:16:11;;;;;;;15.30;3.20;;;;;;;28.91;46.31;100262.97;4935603;29;20047;-65
2022/06/29 11:18:56;;;;;;;9.45;3.97;;;;;;;28.92;45.52;100258.97;4931278;29;20047;-64
2022/06/29 11:21:41;;;;;;;14.23;4.38;;;;;;;28.90;45.87;100251.00;4933084;29;20047;-64
2022/06/29 11:24:26;;;;;;;24.98;3.75;;;;;;;28.92;44.86;100259.75;4917913;29;20055;-64
2022/06/29 11:27:32;;;;;;;10.38;4.32;;;;;;;28.95;45.09;100249.66;4917161;29;20044;-67
2022/06/29 11:30:22;;;;;;;14.98;3.63;;;;;;;28.94;45.02;100250.13;4929404;29;20043;-65
2022/06/29 11:33:12;;;;;;;11.32;3.55;;;;;;;28.99;44.33;100250.31;4925317;29;20051;-66
2022/06/29 11:36:03;;;;;;;9.55;3.15;;;;;;;28.96;44.67;100247.63;4930481;29;20036;-64
2022/06/29 11:38:50;;;;;;;9.15;3.88;;;;;;;28.98;44.97;100245.97;4916773;29;20416;-66
2022/06/29 11:44:39;;;;;;;10.07;3.47;;;;;;;28.97;44.52;100244.38;4905205;29;20070;-66
2022/06/29 11:47:27;;;;;;;9.20;3.83;;;;;;;28.99;44.90;100247.53;4896819;29;20051;-66
2022/06/29 11:50:15;;;;;;;11.07;4.15;;;;;;;28.98;45.28;100250.78;4913548;29;20527;-65
2022/06/29 11:53:00;;;;;;;8.57;2.78;;;;;;;29.04;44.47;100238.56;4918118;29;20039;-65
2022/06/29 11:55:46;;;;;;;7.15;2.88;;;;;;;29.08;43.98;100244.03;4921643;29;20047;-66
2022/06/29 11:58:32;;;;;;;12.52;2.65;;;;;;;29.11;43.44;100243.88;4930709;29;20515;-66
2022/06/29 12:01:19;;;;;;;15.05;3.55;;;;;;;29.17;42.91;100241.28;4918219;29;20040;-63
2022/06/29 12:04:04;;;;;;;11.18;4.30;;;;;;;29.22;43.28;100237.91;4906039;29;20075;-64
2022/06/29 12:06:48;;;;;;;9.45;3.25;;;;;;;29.26;43.55;100244.16;4912138;29;20044;-65
2022/06/29 12:09:34;;;;;;;5.85;2.47;;;;;;;29.37;42.55;100249.41;4915745;29;20145;-65
2022/06/29 12:12:19;;;;;;;9.35;3.28;;;;;;;29.33;43.05;100247.53;4923394;29;20050;-64
2022/06/29 12:15:04;;;;;;;13.98;3.10;;;;;;;29.35;43.17;100241.50;4926375;29;20071;-66
2022/06/29 12:17:49;;;;;;;11.80;3.85;;;;;;;29.43;41.75;100239.19;4933664;29;20031;-65
2022/06/29 12:20:34;;;;;;;4.60;2.30;;;;;;;29.44;42.54;100238.75;4928390;29;20051;-66
2022/06/29 12:23:19;;;;;;;8.93;3.67;;;;;;;29.56;40.63;100240.69;4923007;29;20062;-64
2022/06/29 12:26:04;;;;;;;9.82;2.60;;;;;;;29.79;39.83;100252.66;4925266;29;20055;-68
2022/06/29 12:28:49;;;;;;;7.85;3.53;;;;;;;29.75;40.83;100256.41;4922935;29;20055;-65
2022/06/29 12:31:36;;;;;;;288.55;60.67;;;;;;;29.77;41.24;100255.94;4913563;29;20103;-66
2022/06/29 12:34:21;;;;;;;191.10;40.85;;;;;;;29.76;41.18;100255.13;4924793;29;20040;-64
2022/06/29 12:37:06;;;;;;;220.07;46.72;;;;;;;29.80;41.10;100255.03;4924182;29;20047;-64
2022/06/29 12:39:51;;;;;;;144.00;34.65;;;;;;;29.82;41.31;100251.78;4914065;29;20032;-65
2022/06/29 12:42:36;;;;;;;163.45;36.20;;;;;;;29.84;40.92;100258.47;4915825;29;20052;-64
2022/06/29 12:45:21;;;;;;;118.32;27.10;;;;;;;29.91;40.58;100254.66;4915678;29;20044;-66
2022/06/29 12:48:06;;;;;;;146.50;31.95;;;;;;;29.95;40.88;100255.28;4914536;29;20055;-63
2022/06/29 12:50:51;;;;;;;144.98;30.70;;;;;;;29.95;41.01;100258.88;4915698;29;20052;-64
2022/06/29 12:53:36;;;;;;;132.23;32.03;;;;;;;29.95;41.04;100256.06;4915452;29;20043;-63
2022/06/29 12:56:21;;;;;;;67.50;16.27;;;;;;;30.21;39.58;100251.06;4930709;29;20044;-66
2022/06/29 12:59:06;;;;;;;44.10;12.70;;;;;;;30.21;40.12;100251.06;4915540;29;20044;-65
2022/06/29 13:01:51;;;;;;;170.55;42.78;;;;;;;30.21;40.13;100248.25;4926611;29;20035;-67
2022/06/29 13:04:36;;;;;;;176.60;42.90;;;;;;;30.23;40.40;100244.97;4915712;29;20044;-63
2022/06/29 13:07:26;;;;;;;132.25;34.25;;;;;;;30.24;40.47;100246.53;4915428;29;20052;-65
2022/06/29 13:10:10;;;;;;;67.80;15.52;;;;;;;30.34;40.04;100248.94;4914920;29;20044;-63
2022/06/29 13:12:55;;;;;;;56.38;15.02;;;;;;;30.45;39.74;100242.88;4915370;29;20044;-65
2022/06/29 13:15:40;;;;;;;17.65;3.50;;;;;;;30.55;39.40;100241.69;4924390;29;20043;-66
2022/06/29 13:18:25;;;;;;;20.30;4.45;;;;;;;30.70;39.46;100242.66;4933941;29;20415;-64
2022/06/29 13:21:10;;;;;;;90.50;25.17;;;;;;;30.69;39.33;100237.50;4923837;29;20408;-64